Terminal Aerodrome Forecast
Issued by NWS

Home | Current Version | Previous Version | Graphics & Text | Print | Product List | Glossary On
Versions: 1 2 3 4 5 6 7 8 9 10 11 12 13 14 15
000
FTUS45 KGGW 261734
TAFSDY
TAF
KSDY 261734Z 2618/2718 31018G27KT P6SM BKN060
     FM262300 31012KT P6SM SCT090
     FM270100 VRB06KT P6SM FEW090=

USA.gov is the U.S. government's official web portal to all federal, state and local government web resources and services.